createdAt,value
2019-01-10T00:01:06.789Z,60.67
2019-01-10T00:03:35.735Z,60.41
2019-01-10T00:06:04.855Z,60.29
2019-01-10T00:08:33.808Z,60.21
2019-01-10T00:11:02.795Z,60.04
2019-01-10T00:13:31.654Z,60.11
2019-01-10T00:16:00.633Z,60.16
2019-01-10T00:18:31.624Z,59.94
2019-01-10T00:21:00.736Z,59.95
2019-01-10T00:23:30.190Z,59.98
2019-01-10T00:25:59.120Z,60.27
2019-01-10T00:28:27.909Z,59.87
2019-01-10T00:30:57.340Z,59.77
2019-01-10T00:33:26.302Z,59.44
2019-01-10T00:35:55.492Z,59.28
2019-01-10T00:38:24.358Z,59.57
2019-01-10T00:40:53.328Z,59.17
2019-01-10T00:43:22.175Z,59.53
2019-01-10T00:45:51.067Z,59.35
2019-01-10T00:48:20.012Z,59.13
2019-01-10T00:50:48.957Z,59.49
2019-01-10T00:53:17.893Z,59.46
2019-01-10T00:55:46.838Z,59.64
2019-01-10T00:58:15.931Z,59.50
2019-01-10T01:00:44.816Z,59.60
2019-01-10T01:03:13.716Z,59.38
2019-01-10T01:05:42.864Z,59.75
2019-01-10T01:08:11.783Z,59.80
2019-01-10T01:10:43.373Z,60.02
2019-01-10T01:13:12.314Z,60.00
2019-01-10T01:15:41.307Z,60.37
2019-01-10T01:18:10.154Z,59.88
2019-01-10T01:20:39.004Z,60.28
2019-01-10T01:23:07.900Z,59.71
2019-01-10T01:25:36.839Z,59.76
2019-01-10T01:28:05.723Z,60.13
2019-01-10T01:30:34.648Z,60.16
2019-01-10T01:33:05.709Z,60.37
2019-01-10T01:35:34.615Z,60.55
2019-01-10T01:38:04.070Z,60.51
2019-01-10T01:40:33.011Z,60.51
2019-01-10T01:43:07.568Z,60.36
2019-01-10T01:45:34.940Z,60.23
2019-01-10T01:48:04.139Z,60.59
2019-01-10T01:50:33.011Z,60.60
2019-01-10T01:53:01.928Z,60.83
2019-01-10T01:55:31.053Z,60.71
2019-01-10T01:58:01.963Z,60.93
2019-01-10T02:00:30.985Z,60.75
2019-01-10T02:03:06.422Z,60.96
2019-01-10T02:05:35.718Z,60.76
2019-01-10T02:08:04.875Z,60.80
2019-01-10T02:10:34.300Z,60.67
2019-01-10T02:13:04.324Z,61.23
2019-01-10T02:15:41.302Z,61.10
2019-01-10T02:18:10.198Z,61.02
2019-01-10T02:20:54.828Z,61.04
2019-01-10T02:23:24.912Z,61.04
2019-01-10T02:25:53.771Z,61.16
2019-01-10T02:28:22.919Z,61.10
2019-01-10T02:30:53.854Z,61.13
2019-01-10T02:33:22.716Z,61.11
2019-01-10T02:35:51.695Z,61.23
2019-01-10T02:38:20.811Z,61.65
2019-01-10T02:40:51.360Z,61.71
2019-01-10T02:43:26.286Z,61.79
2019-01-10T02:45:51.680Z,61.87
2019-01-10T02:48:26.328Z,61.72
2019-01-10T02:50:55.129Z,61.58
2019-01-10T02:53:24.010Z,61.84
2019-01-10T02:55:52.874Z,61.65
2019-01-10T02:58:21.740Z,61.86
2019-01-10T03:00:50.613Z,61.99
2019-01-10T03:03:19.570Z,61.73
2019-01-10T03:05:48.539Z,62.10
2019-01-10T03:08:17.425Z,61.66
2019-01-10T03:10:46.283Z,61.81
2019-01-10T03:13:15.203Z,61.99
2019-01-10T03:15:46.748Z,62.16
2019-01-10T03:18:17.516Z,61.74
2019-01-10T03:20:46.894Z,62.05
2019-01-10T03:23:16.071Z,61.86
2019-01-10T03:25:44.989Z,61.87
2019-01-10T03:28:13.872Z,62.33
2019-01-10T03:30:45.118Z,62.39
2019-01-10T03:33:16.862Z,62.58
2019-01-10T03:35:45.694Z,62.25
2019-01-10T03:38:16.121Z,62.07
2019-01-10T03:40:47.435Z,62.32
2019-01-10T03:43:16.643Z,62.52
2019-01-10T03:45:46.675Z,62.65
2019-01-10T03:48:15.877Z,62.47
2019-01-10T03:50:44.719Z,62.40
2019-01-10T03:53:15.351Z,62.55
2019-01-10T03:55:44.575Z,62.44
2019-01-10T03:58:13.512Z,62.39
2019-01-10T04:00:42.449Z,62.39
2019-01-10T04:03:11.562Z,62.27
2019-01-10T04:05:40.703Z,62.54
2019-01-10T04:08:09.454Z,62.77
2019-01-10T04:10:38.331Z,63.09
2019-01-10T04:13:07.172Z,62.96
2019-01-10T04:15:36.141Z,62.60
2019-01-10T04:18:05.067Z,62.64
2019-01-10T04:20:33.962Z,62.92
2019-01-10T04:23:02.816Z,62.66
2019-01-10T04:25:31.581Z,62.41
2019-01-10T04:28:03.024Z,62.44
2019-01-10T04:30:31.996Z,62.67
2019-01-10T04:33:00.875Z,62.59
2019-01-10T04:35:29.808Z,62.81
2019-01-10T04:37:58.757Z,62.57
2019-01-10T04:40:27.637Z,62.98
2019-01-10T04:42:58.589Z,62.80
2019-01-10T04:45:29.311Z,62.83
2019-01-10T04:47:58.444Z,63.05
2019-01-10T04:50:28.039Z,62.22
2019-01-10T04:52:57.424Z,62.54
2019-01-10T04:55:26.317Z,62.78
2019-01-10T04:57:55.215Z,62.98
2019-01-10T05:00:27.189Z,62.73
2019-01-10T05:02:59.371Z,62.91
2019-01-10T05:05:28.319Z,62.93
2019-01-10T05:07:57.542Z,62.95
2019-01-10T05:10:26.705Z,62.91
2019-01-10T05:12:55.589Z,62.84
2019-01-10T05:15:24.521Z,62.90
2019-01-10T05:17:53.643Z,62.99
2019-01-10T05:20:22.506Z,63.10
2019-01-10T05:22:52.351Z,63.21
2019-01-10T05:25:22.904Z,63.25
2019-01-10T05:27:51.719Z,63.27
2019-01-10T05:30:25.137Z,63.35
2019-01-10T05:32:54.975Z,63.53
2019-01-10T05:35:24.175Z,63.61
2019-01-10T05:37:53.405Z,64.00
2019-01-10T05:40:26.383Z,64.12
2019-01-10T05:42:55.300Z,64.43
2019-01-10T05:45:24.531Z,64.64
2019-01-10T05:47:53.514Z,64.45
2019-01-10T05:50:22.495Z,64.25
2019-01-10T05:52:51.453Z,64.34
2019-01-10T05:55:22.045Z,64.30
2019-01-10T05:57:51.159Z,64.47
2019-01-10T06:00:25.162Z,64.43
2019-01-10T06:02:58.145Z,64.45
2019-01-10T06:05:27.162Z,64.61
2019-01-10T06:07:56.411Z,64.78
2019-01-10T06:10:31.508Z,64.87
2019-01-10T06:13:01.620Z,64.93
2019-01-10T06:15:30.480Z,64.56
2019-01-10T06:18:00.612Z,64.79
2019-01-10T06:20:31.519Z,64.82
2019-01-10T06:23:21.035Z,64.50
2019-01-10T06:25:50.322Z,64.56
2019-01-10T06:28:19.135Z,64.57
2019-01-10T06:30:47.934Z,64.81
2019-01-10T06:33:16.815Z,64.90
2019-01-10T06:35:45.759Z,65.86
2019-01-10T06:38:14.549Z,66.26
2019-01-10T06:40:43.423Z,65.97
2019-01-10T06:43:12.342Z,65.89
2019-01-10T06:45:41.211Z,65.84
2019-01-10T06:48:10.124Z,66.02
2019-01-10T06:50:39.191Z,66.23
2019-01-10T06:53:08.126Z,66.13
2019-01-10T06:55:37.012Z,66.09
2019-01-10T06:58:05.974Z,66.05
2019-01-10T07:00:34.843Z,66.26
2019-01-10T07:03:03.731Z,66.32
2019-01-10T07:05:32.952Z,66.36
2019-01-10T07:08:01.681Z,66.42
2019-01-10T07:10:31.155Z,66.44
2019-01-10T07:13:00.106Z,66.36
2019-01-10T07:15:28.998Z,66.39
2019-01-10T07:17:59.591Z,66.32
2019-01-10T07:20:28.500Z,66.33
2019-01-10T07:23:00.467Z,66.54
2019-01-10T07:25:29.456Z,66.88
2019-01-10T07:28:01.815Z,66.85
2019-01-10T07:30:35.777Z,66.75
2019-01-10T07:33:01.352Z,66.89
2019-01-10T07:35:30.376Z,66.93
2019-01-10T07:37:59.342Z,67.68
2019-01-10T07:40:28.531Z,68.08
2019-01-10T07:42:57.657Z,67.60
2019-01-10T07:45:27.598Z,67.34
2019-01-10T07:47:56.572Z,67.36
2019-01-10T07:50:35.995Z,67.56
2019-01-10T07:53:09.408Z,67.39
2019-01-10T07:55:39.040Z,67.30
2019-01-10T07:58:08.130Z,67.38
2019-01-10T08:00:37.065Z,67.54
2019-01-10T08:03:08.569Z,67.58
2019-01-10T08:05:37.218Z,67.66
2019-01-10T08:08:07.251Z,67.86
2019-01-10T08:10:37.546Z,68.00
2019-01-10T08:13:06.920Z,68.15
2019-01-10T08:15:35.888Z,68.34
2019-01-10T08:18:04.988Z,68.56
2019-01-10T08:20:33.983Z,68.79
2019-01-10T08:23:02.863Z,68.96
2019-01-10T08:25:33.416Z,69.08
2019-01-10T08:28:02.348Z,69.06
2019-01-10T08:30:31.246Z,69.14
2019-01-10T08:33:00.281Z,69.02
2019-01-10T08:35:29.711Z,69.12
2019-01-10T08:37:58.681Z,69.25
2019-01-10T08:40:27.630Z,69.08
2019-01-10T08:42:56.546Z,69.21
2019-01-10T08:45:25.574Z,69.26
2019-01-10T08:47:54.549Z,69.40
2019-01-10T08:50:29.656Z,69.48
2019-01-10T08:52:58.577Z,69.24
2019-01-10T08:55:27.587Z,69.15
2019-01-10T08:57:56.411Z,69.30
2019-01-10T09:00:26.122Z,69.37
2019-01-10T09:02:55.792Z,69.38
2019-01-10T09:05:24.978Z,69.09
2019-01-10T09:07:54.461Z,69.04
2019-01-10T09:10:34.278Z,69.23
2019-01-10T09:13:04.068Z,68.75
2019-01-10T09:15:34.769Z,68.75
2019-01-10T09:18:06.215Z,68.70
2019-01-10T09:20:35.384Z,68.66
2019-01-10T09:23:04.440Z,68.32
2019-01-10T09:25:33.318Z,68.51
2019-01-10T09:28:02.331Z,68.69
2019-01-10T09:30:31.321Z,68.62
2019-01-10T09:33:00.210Z,68.77
2019-01-10T09:35:29.188Z,68.69
2019-01-10T09:37:58.187Z,68.94
2019-01-10T09:40:27.096Z,69.02
2019-01-10T09:42:56.073Z,69.25
2019-01-10T09:45:25.838Z,69.18
2019-01-10T09:47:54.828Z,69.19
2019-01-10T09:50:24.069Z,68.85
2019-01-10T09:52:53.970Z,68.57
2019-01-10T09:55:22.982Z,68.08
2019-01-10T09:57:53.560Z,68.06
2019-01-10T10:00:26.826Z,68.34
2019-01-10T10:02:55.739Z,68.41
2019-01-10T10:05:24.718Z,68.45
2019-01-10T10:07:57.990Z,68.12
2019-01-10T10:10:27.128Z,68.19
2019-01-10T10:12:56.098Z,67.85
2019-01-10T10:15:25.032Z,67.66
2019-01-10T10:17:54.026Z,67.71
2019-01-10T10:20:24.505Z,68.10
2019-01-10T10:22:53.454Z,67.65
2019-01-10T10:25:22.419Z,67.29
2019-01-10T10:27:51.348Z,67.19
2019-01-10T10:30:21.356Z,66.82
2019-01-10T10:32:50.344Z,66.37
2019-01-10T10:35:24.103Z,66.30
2019-01-10T10:37:53.070Z,66.56
2019-01-10T10:40:22.579Z,66.01
2019-01-10T10:42:52.350Z,65.30
2019-01-10T10:45:21.650Z,65.20
2019-01-10T10:47:50.696Z,65.61
2019-01-10T10:50:22.219Z,65.61
2019-01-10T10:52:52.575Z,64.93
2019-01-10T10:55:21.540Z,64.79
2019-01-10T10:57:50.572Z,64.41
2019-01-10T11:00:22.234Z,64.51
2019-01-10T11:02:51.191Z,64.64
2019-01-10T11:05:21.422Z,64.76
2019-01-10T11:07:50.329Z,64.80
2019-01-10T11:10:19.670Z,64.13
2019-01-10T11:12:49.243Z,64.41
2019-01-10T11:15:18.459Z,64.46
2019-01-10T11:17:48.606Z,64.71
2019-01-10T11:20:24.428Z,65.32
2019-01-10T11:22:54.651Z,65.08
2019-01-10T11:25:28.592Z,65.24
2019-01-10T11:31:25.432Z,64.80
2019-01-10T11:33:57.586Z,64.83
2019-01-10T11:36:26.740Z,64.91
2019-01-10T11:38:56.199Z,65.23
2019-01-10T11:41:25.427Z,64.95
2019-01-10T11:43:57.259Z,64.43
2019-01-10T11:46:27.632Z,64.66
2019-01-10T11:52:36.595Z,64.56
2019-01-10T11:55:06.101Z,64.76
2019-01-10T11:57:35.161Z,64.92
2019-01-10T12:00:05.619Z,65.21
2019-01-10T12:02:36.464Z,65.51
2019-01-10T12:05:56.098Z,65.55
2019-01-10T12:08:25.064Z,65.36
2019-01-10T12:10:53.950Z,65.22
2019-01-10T12:13:23.702Z,65.47
2019-01-10T12:15:53.079Z,65.84
2019-01-10T12:18:29.733Z,65.92
2019-01-10T12:20:59.810Z,66.08
2019-01-10T12:23:28.586Z,65.63
2019-01-10T12:25:57.546Z,65.49
2019-01-10T12:28:26.707Z,65.13
2019-01-10T12:30:55.626Z,65.38
2019-01-10T12:33:25.097Z,65.30
2019-01-10T12:35:54.102Z,64.30
2019-01-10T12:38:23.283Z,64.41
2019-01-10T12:40:52.211Z,64.53
2019-01-10T12:43:21.356Z,64.83
2019-01-10T12:45:50.353Z,64.86
2019-01-10T12:48:19.258Z,64.73
2019-01-10T12:50:48.158Z,65.12
2019-01-10T12:53:17.187Z,64.34
2019-01-10T12:55:46.175Z,64.56
2019-01-10T12:58:18.497Z,64.49
2019-01-10T13:00:47.395Z,64.45
2019-01-10T13:03:17.398Z,64.61
2019-01-10T13:05:46.301Z,64.82
2019-01-10T13:08:15.304Z,64.89
2019-01-10T13:10:44.303Z,64.80
2019-01-10T13:13:15.583Z,64.68
2019-01-10T13:15:44.518Z,64.48
2019-01-10T13:18:13.470Z,64.45
2019-01-10T13:20:42.486Z,64.85
2019-01-10T13:23:11.462Z,64.67
2019-01-10T13:25:40.332Z,64.66
2019-01-10T13:28:09.312Z,64.37
2019-01-10T13:30:38.283Z,64.55
2019-01-10T13:33:07.163Z,64.71
2019-01-10T13:35:36.134Z,64.74
2019-01-10T13:38:05.185Z,64.74
2019-01-10T13:40:34.229Z,64.78
2019-01-10T13:43:05.091Z,63.17
2019-01-10T13:45:36.342Z,63.14
2019-01-10T13:48:05.873Z,63.65
2019-01-10T13:50:35.057Z,64.19
2019-01-10T13:53:04.303Z,64.46
2019-01-10T13:55:33.513Z,64.79
2019-01-10T13:58:02.480Z,65.14
2019-01-10T14:00:35.594Z,65.04
2019-01-10T14:03:02.876Z,64.89
2019-01-10T14:05:31.891Z,64.99
2019-01-10T14:08:00.871Z,65.16
2019-01-10T14:10:29.836Z,65.08
2019-01-10T14:12:58.738Z,65.04
2019-01-10T14:15:30.428Z,65.32
2019-01-10T14:20:41.665Z,64.99
2019-01-10T14:23:22.919Z,64.85
2019-01-10T14:25:51.791Z,65.09
2019-01-10T14:28:20.767Z,65.51
2019-01-10T14:30:49.756Z,65.64
2019-01-10T14:33:18.691Z,65.81
2019-01-10T14:35:47.587Z,65.54
2019-01-10T14:38:16.540Z,65.87
2019-01-10T14:40:45.509Z,66.16
2019-01-10T14:43:14.424Z,66.09
2019-01-10T14:45:43.900Z,66.20
2019-01-10T14:48:12.776Z,66.37
2019-01-10T14:50:41.802Z,66.51
2019-01-10T14:53:10.736Z,65.70
2019-01-10T14:55:39.695Z,65.94
2019-01-10T14:58:08.733Z,66.35
2019-01-10T15:00:37.762Z,66.65
2019-01-10T15:03:06.689Z,66.97
2019-01-10T15:05:35.571Z,67.02
2019-01-10T15:08:04.868Z,66.93
2019-01-10T15:10:33.929Z,67.07
2019-01-10T15:13:02.869Z,67.25
2019-01-10T15:15:31.672Z,67.47
2019-01-10T15:18:00.633Z,67.73
2019-01-10T15:20:31.082Z,67.89
2019-01-10T15:23:00.013Z,68.14
2019-01-10T15:25:28.976Z,68.10
2019-01-10T15:27:57.927Z,68.12
2019-01-10T15:30:28.105Z,68.12
2019-01-10T15:32:57.386Z,68.08
2019-01-10T15:35:26.408Z,68.26
2019-01-10T15:37:55.304Z,68.06
2019-01-10T15:40:31.995Z,68.49
2019-01-10T15:43:01.058Z,68.82
2019-01-10T15:45:30.041Z,69.03
2019-01-10T15:47:59.017Z,68.86
2019-01-10T15:50:28.015Z,69.24
2019-01-10T15:52:56.976Z,69.29
2019-01-10T15:55:25.879Z,69.34
2019-01-10T15:57:54.819Z,69.49
2019-01-10T16:00:24.437Z,69.49
2019-01-10T16:02:53.457Z,69.54
2019-01-10T16:05:22.382Z,69.86
2019-01-10T16:07:51.328Z,70.08
2019-01-10T16:10:20.673Z,70.26
2019-01-10T16:12:49.974Z,70.32
2019-01-10T16:15:20.602Z,70.28
2019-01-10T16:17:49.610Z,69.56
2019-01-10T16:20:21.734Z,68.98
2019-01-10T16:22:50.757Z,68.61
2019-01-10T16:25:19.928Z,69.19
2019-01-10T16:27:48.930Z,69.66
2019-01-10T16:30:28.307Z,69.57
2019-01-10T16:32:57.269Z,69.52
2019-01-10T16:35:26.158Z,69.16
2019-01-10T16:37:55.121Z,69.54
2019-01-10T16:40:24.034Z,69.94
2019-01-10T16:42:52.977Z,70.33
2019-01-10T16:45:29.853Z,70.05
2019-01-10T16:47:58.747Z,70.72
2019-01-10T16:50:27.653Z,70.70
2019-01-10T16:52:56.553Z,71.01
2019-01-10T16:55:25.543Z,71.09
2019-01-10T16:57:54.998Z,71.03
2019-01-10T17:00:32.443Z,70.98
2019-01-10T17:03:01.917Z,71.23
2019-01-10T17:05:57.713Z,71.66
2019-01-10T17:08:26.594Z,71.61
2019-01-10T17:10:56.169Z,72.36
2019-01-10T17:13:25.197Z,72.38
2019-01-10T17:15:54.155Z,72.74
2019-01-10T17:18:23.152Z,72.58
2019-01-10T17:20:52.199Z,72.71
2019-01-10T17:23:21.227Z,71.96
2019-01-10T17:25:50.267Z,72.46
2019-01-10T17:28:19.253Z,72.08
2019-01-10T17:30:48.249Z,72.45
2019-01-10T17:33:20.736Z,73.06
2019-01-10T17:35:51.358Z,73.23
2019-01-10T17:38:21.415Z,73.41
2019-01-10T17:40:53.119Z,73.21
2019-01-10T17:43:22.268Z,73.24
2019-01-10T17:45:53.534Z,73.12
2019-01-10T17:48:24.974Z,72.92
2019-01-10T17:50:54.006Z,73.57
2019-01-10T17:53:22.883Z,74.33
2019-01-10T17:55:51.824Z,74.45
2019-01-10T17:58:38.938Z,74.62
2019-01-10T18:01:07.902Z,74.03
2019-01-10T18:03:40.171Z,74.13
2019-01-10T18:06:07.545Z,74.11
2019-01-10T18:08:36.435Z,74.45
2019-01-10T18:11:05.413Z,74.57
2019-01-10T18:13:34.356Z,74.84
2019-01-10T18:16:03.322Z,74.65
2019-01-10T18:18:32.194Z,74.70
2019-01-10T18:21:01.195Z,75.30
2019-01-10T18:23:30.244Z,75.44
2019-01-10T18:26:01.219Z,75.45
2019-01-10T18:28:32.519Z,75.34
2019-01-10T18:31:01.297Z,75.73
2019-01-10T18:33:31.593Z,75.84
2019-01-10T18:39:28.749Z,76.23
2019-01-10T18:41:57.753Z,76.88
2019-01-10T18:44:26.672Z,75.86
2019-01-10T18:46:55.619Z,75.48
2019-01-10T18:49:30.450Z,76.28
2019-01-10T18:51:55.765Z,76.99
2019-01-10T18:54:24.754Z,77.26
2019-01-10T18:56:56.859Z,77.12
2019-01-10T18:59:25.746Z,77.01
2019-01-10T19:02:01.990Z,77.01
2019-01-10T19:04:30.902Z,77.12
2019-01-10T19:07:02.159Z,76.12
2019-01-10T19:09:31.097Z,75.67
2019-01-10T19:12:00.079Z,75.68
2019-01-10T19:14:28.991Z,76.21
2019-01-10T19:16:57.801Z,76.47
2019-01-10T19:19:26.869Z,76.71
2019-01-10T19:21:55.821Z,76.85
2019-01-10T19:24:24.755Z,77.28
2019-01-10T19:26:53.723Z,77.81
2019-01-10T19:29:23.793Z,77.56
2019-01-10T19:31:53.367Z,77.11
2019-01-10T19:34:25.477Z,77.11
2019-01-10T19:36:54.409Z,77.65
2019-01-10T19:39:23.318Z,77.87
2019-01-10T19:41:52.353Z,78.05
2019-01-10T19:44:21.367Z,77.79
2019-01-10T19:46:50.287Z,77.89
2019-01-10T19:49:19.328Z,77.70
2019-01-10T19:51:48.205Z,78.00
2019-01-10T19:54:18.036Z,77.78
2019-01-10T19:56:48.137Z,77.54
2019-01-10T19:59:17.168Z,77.55
2019-01-10T20:01:46.039Z,78.04
2019-01-10T20:04:15.158Z,77.56
2019-01-10T20:06:44.186Z,77.64
2019-01-10T20:09:13.251Z,77.90
2019-01-10T20:11:42.974Z,78.10
2019-01-10T20:14:11.979Z,77.78
2019-01-10T20:16:40.956Z,78.62
2019-01-10T20:19:11.504Z,78.53
2019-01-10T20:21:40.507Z,78.85
2019-01-10T20:24:09.540Z,79.34
2019-01-10T20:26:42.877Z,79.49
2019-01-10T20:29:13.233Z,79.33
2019-01-10T20:31:43.893Z,78.56
2019-01-10T20:34:13.196Z,78.83
2019-01-10T20:36:42.396Z,79.10
2019-01-10T20:39:11.873Z,78.79
2019-01-10T20:41:43.484Z,78.53
2019-01-10T20:44:15.010Z,78.41
2019-01-10T20:46:47.546Z,78.84
2019-01-10T20:49:17.128Z,79.10
2019-01-10T20:51:46.149Z,78.75
2019-01-10T20:54:15.177Z,78.71
2019-01-10T20:56:44.220Z,78.67
2019-01-10T20:59:13.620Z,78.88
2019-01-10T21:01:42.551Z,78.89
2019-01-10T21:04:11.541Z,79.02
2019-01-10T21:06:40.612Z,79.09
2019-01-10T21:09:13.086Z,79.00
2019-01-10T21:11:40.545Z,79.32
2019-01-10T21:14:09.550Z,79.81
2019-01-10T21:16:38.589Z,79.42
2019-01-10T21:19:07.781Z,79.78
2019-01-10T21:21:37.229Z,80.35
2019-01-10T21:24:06.517Z,80.11
2019-01-10T21:26:35.595Z,79.61
2019-01-10T21:29:04.600Z,79.46
2019-01-10T21:31:34.060Z,79.93
2019-01-10T21:34:03.057Z,80.40
2019-01-10T21:36:32.010Z,80.53
2019-01-10T21:39:00.953Z,80.61
2019-01-10T21:41:29.855Z,80.59
2019-01-10T21:43:58.789Z,80.08
2019-01-10T21:46:27.816Z,79.76
2019-01-10T21:48:56.835Z,79.92
2019-01-10T21:51:25.742Z,79.84
2019-01-10T21:53:54.642Z,79.62
2019-01-10T21:56:23.765Z,80.00
2019-01-10T21:58:52.790Z,79.91
2019-01-10T22:01:21.818Z,80.39
2019-01-10T22:03:50.759Z,79.89
2019-01-10T22:06:19.716Z,79.95
2019-01-10T22:08:48.728Z,80.39
2019-01-10T22:11:20.829Z,80.14
2019-01-10T22:13:49.744Z,80.30
2019-01-10T22:16:18.646Z,80.29
2019-01-10T22:18:47.523Z,80.22
2019-01-10T22:21:16.571Z,80.49
2019-01-10T22:23:45.848Z,80.79
2019-01-10T22:26:14.883Z,80.40
2019-01-10T22:28:43.961Z,80.25
2019-01-10T22:31:13.018Z,80.18
2019-01-10T22:33:42.098Z,80.64
2019-01-10T22:36:11.272Z,80.96
2019-01-10T22:38:40.384Z,81.03
2019-01-10T22:41:09.432Z,80.72
2019-01-10T22:43:38.373Z,80.86
2019-01-10T22:46:07.933Z,80.55
2019-01-10T22:48:36.919Z,80.62
2019-01-10T22:51:08.183Z,80.73
2019-01-10T22:53:38.433Z,81.11
2019-01-10T22:56:08.679Z,81.58
2019-01-10T22:58:39.939Z,81.38
2019-01-10T23:01:39.684Z,81.46
2019-01-10T23:04:10.033Z,81.49
2019-01-10T23:06:39.025Z,81.06
2019-01-10T23:09:09.802Z,81.29
2019-01-10T23:11:38.954Z,81.67
2019-01-10T23:14:08.131Z,82.14
2019-01-10T23:16:37.395Z,82.23
2019-01-10T23:19:07.076Z,82.11
2019-01-10T23:21:40.606Z,82.30
2019-01-10T23:24:19.793Z,82.32
2019-01-10T23:26:55.736Z,82.37
2019-01-10T23:29:31.639Z,81.51
2019-01-10T23:32:02.915Z,81.76
2019-01-10T23:34:31.882Z,82.04
2019-01-10T23:37:00.846Z,82.35
2019-01-10T23:39:29.827Z,81.91
2019-01-10T23:41:58.959Z,81.87
2019-01-10T23:44:28.043Z,82.16
2019-01-10T23:46:56.976Z,82.69
2019-01-10T23:49:25.928Z,82.80
2019-01-10T23:51:54.983Z,82.70
2019-01-10T23:54:23.898Z,82.87
2019-01-10T23:56:52.794Z,82.77
2019-01-10T23:59:22.811Z,82.70
